createdAt,value
2018-02-19T00:00:22.129Z,42.30
2018-02-19T00:02:50.274Z,39.90
2018-02-19T00:05:18.394Z,40.10
2018-02-19T00:07:47.303Z,36.10
2018-02-19T00:10:15.421Z,34.22
2018-02-19T00:12:43.569Z,40.38
2018-02-19T00:15:11.702Z,37.38
2018-02-19T00:17:40.597Z,38.15
2018-02-19T00:20:08.717Z,41.35
2018-02-19T00:22:36.867Z,35.17
2018-02-19T00:25:04.989Z,35.42
2018-02-19T00:27:33.123Z,35.60
2018-02-19T00:30:01.246Z,36.83
2018-02-19T00:32:30.145Z,38.25
2018-02-19T00:34:58.312Z,36.45
2018-02-19T00:37:27.233Z,39.03
2018-02-19T00:39:55.371Z,37.70
2018-02-19T00:42:24.272Z,36.35
2018-02-19T00:44:52.432Z,36.45
2018-02-19T00:47:20.580Z,38.80
2018-02-19T00:49:48.709Z,37.47
2018-02-19T00:52:16.853Z,36.63
2018-02-19T00:54:44.998Z,33.53
2018-02-19T00:57:13.134Z,41.65
2018-02-19T00:59:41.260Z,37.10
2018-02-19T01:02:10.166Z,32.30
2018-02-19T01:04:38.296Z,35.47
2018-02-19T01:07:06.437Z,35.22
2018-02-19T01:09:34.577Z,39.60
2018-02-19T01:12:02.719Z,34.78
2018-02-19T01:14:30.843Z,32.38
2018-02-19T01:16:58.981Z,36.55
2018-02-19T01:19:27.889Z,35.03
2018-02-19T01:21:56.020Z,38.53
2018-02-19T01:24:24.180Z,37.53
2018-02-19T01:26:52.320Z,31.23
2018-02-19T01:29:20.437Z,35.70
2018-02-19T01:31:49.345Z,34.80
2018-02-19T01:34:18.243Z,37.45
2018-02-19T01:36:46.390Z,32.58
2018-02-19T01:39:14.509Z,33.92
2018-02-19T01:41:42.654Z,34.90
2018-02-19T01:44:10.790Z,30.75
2018-02-19T01:46:38.924Z,35.55
2018-02-19T01:49:07.062Z,35.75
2018-02-19T01:51:35.956Z,35.78
2018-02-19T01:54:04.097Z,33.80
2018-02-19T01:56:32.237Z,31.83
2018-02-19T01:59:00.357Z,32.42
2018-02-19T02:01:29.263Z,32.42
2018-02-19T02:03:58.144Z,32.67
2018-02-19T02:06:27.048Z,35.45
2018-02-19T02:08:55.170Z,36.75
2018-02-19T02:11:23.310Z,29.33
2018-02-19T02:13:51.432Z,34.30
2018-02-19T02:16:20.317Z,43.17
2018-02-19T02:18:48.458Z,43.55
2018-02-19T02:21:16.593Z,34.38
2018-02-19T02:23:44.728Z,37.25
2018-02-19T02:26:12.896Z,36.03
2018-02-19T02:28:41.117Z,32.75
2018-02-19T02:31:09.346Z,33.53
2018-02-19T02:33:37.489Z,34.95
2018-02-19T02:36:05.632Z,32.47
2018-02-19T02:38:33.776Z,34.80
2018-02-19T02:41:03.078Z,31.60
2018-02-19T02:43:31.210Z,33.78
2018-02-19T02:45:59.334Z,27.92
2018-02-19T02:48:27.473Z,32.70
2018-02-19T02:50:55.608Z,28.33
2018-02-19T02:53:23.756Z,31.08
2018-02-19T02:55:51.896Z,28.83
2018-02-19T02:58:20.804Z,32.20
2018-02-19T03:00:49.695Z,30.73
2018-02-19T03:03:18.589Z,30.40
2018-02-19T03:05:46.721Z,33.83
2018-02-19T03:08:14.857Z,29.63
2018-02-19T03:10:42.984Z,33.75
2018-02-19T03:13:11.900Z,34.78
2018-02-19T03:15:40.035Z,29.63
2018-02-19T03:18:08.174Z,32.22
2018-02-19T03:20:36.296Z,34.60
2018-02-19T03:23:05.198Z,31.92
2018-02-19T03:25:33.325Z,32.78
2018-02-19T03:28:01.496Z,34.55
2018-02-19T03:30:29.588Z,28.92
2018-02-19T03:32:57.726Z,36.05
2018-02-19T03:35:25.890Z,30.37
2018-02-19T03:37:54.749Z,29.67
2018-02-19T03:40:22.898Z,34.90
2018-02-19T03:42:51.794Z,33.20
2018-02-19T03:45:20.701Z,30.10
2018-02-19T03:47:48.831Z,27.90
2018-02-19T03:50:17.319Z,29.42
2018-02-19T03:52:45.428Z,33.58
2018-02-19T03:55:13.562Z,33.70
2018-02-19T03:57:42.460Z,32.22
2018-02-19T04:00:11.359Z,32.22
2018-02-19T04:02:40.249Z,28.45
2018-02-19T04:05:08.389Z,27.67
2018-02-19T04:07:36.860Z,31.98
2018-02-19T04:10:04.995Z,31.55
2018-02-19T04:12:33.115Z,30.23
2018-02-19T04:15:01.261Z,27.87
2018-02-19T04:17:29.388Z,32.65
2018-02-19T04:19:57.533Z,28.83
2018-02-19T04:22:27.177Z,30.33
2018-02-19T04:24:55.308Z,32.50
2018-02-19T04:27:23.454Z,30.27
2018-02-19T04:29:51.585Z,30.12
2018-02-19T04:32:19.725Z,33.92
2018-02-19T04:34:47.849Z,29.73
2018-02-19T04:37:15.986Z,29.60
2018-02-19T04:39:44.967Z,29.45
2018-02-19T04:42:13.872Z,29.55
2018-02-19T04:44:42.007Z,26.73
2018-02-19T04:47:10.139Z,29.95
2018-02-19T04:49:38.273Z,38.80
2018-02-19T04:52:06.415Z,48.67
2018-02-19T04:54:34.918Z,46.05
2018-02-19T04:57:03.061Z,41.70
2018-02-19T04:59:31.185Z,44.83
2018-02-19T05:02:00.105Z,68.70
2018-02-19T05:04:28.233Z,36.30
2018-02-19T05:06:56.370Z,32.42
2018-02-19T05:09:24.597Z,29.70
2018-02-19T05:11:52.729Z,29.08
2018-02-19T05:14:20.898Z,24.73
2018-02-19T05:16:49.024Z,24.98
2018-02-19T05:19:17.179Z,26.02
2018-02-19T05:21:45.315Z,26.25
2018-02-19T05:24:13.452Z,27.33
2018-02-19T05:26:41.626Z,25.02
2018-02-19T05:29:09.834Z,25.35
2018-02-19T05:31:37.978Z,25.48
2018-02-19T05:34:06.122Z,25.23
2018-02-19T05:36:34.250Z,25.98
2018-02-19T05:39:02.385Z,27.67
2018-02-19T05:41:30.508Z,22.25
2018-02-19T05:43:59.416Z,26.83
2018-02-19T05:46:28.385Z,29.60
2018-02-19T05:48:57.295Z,27.62
2018-02-19T05:51:25.434Z,25.77
2018-02-19T05:53:53.553Z,26.92
2018-02-19T05:56:21.697Z,30.17
2018-02-19T05:58:50.589Z,25.10
2018-02-19T06:01:19.493Z,28.02
2018-02-19T06:03:47.628Z,25.58
2018-02-19T06:06:15.769Z,23.48
2018-02-19T06:08:43.896Z,28.02
2018-02-19T06:11:12.050Z,32.58
2018-02-19T06:13:40.170Z,22.02
2018-02-19T06:16:08.531Z,30.10
2018-02-19T06:18:36.692Z,24.98
2018-02-19T06:21:05.581Z,25.10
2018-02-19T06:23:33.705Z,22.55
2018-02-19T06:26:01.845Z,26.80
2018-02-19T06:28:29.973Z,30.73
2018-02-19T06:30:58.880Z,26.35
2018-02-19T06:33:27.005Z,24.50
2018-02-19T06:35:55.240Z,29.65
2018-02-19T06:38:23.363Z,29.87
2018-02-19T06:40:51.511Z,25.73
2018-02-19T06:43:20.016Z,30.62
2018-02-19T06:45:48.896Z,25.37
2018-02-19T06:48:17.339Z,26.48
2018-02-19T06:50:45.473Z,22.62
2018-02-19T06:53:14.365Z,25.12
2018-02-19T06:55:43.289Z,27.13
2018-02-19T06:58:11.421Z,23.92
2018-02-19T07:00:40.312Z,26.90
2018-02-19T07:03:09.221Z,26.08
2018-02-19T07:05:37.362Z,26.62
2018-02-19T07:08:05.500Z,24.65
2018-02-19T07:10:33.621Z,28.52
2018-02-19T07:13:01.767Z,23.50
2018-02-19T07:15:29.893Z,26.27
2018-02-19T07:17:58.032Z,23.42
2018-02-19T07:20:26.163Z,26.98
2018-02-19T07:22:54.307Z,23.90
2018-02-19T07:25:22.434Z,24.55
2018-02-19T07:27:51.337Z,21.92
2018-02-19T07:30:20.277Z,22.08
2018-02-19T07:32:48.445Z,21.85
2018-02-19T07:35:16.561Z,21.40
2018-02-19T07:37:45.467Z,24.27
2018-02-19T07:40:13.602Z,20.85
2018-02-19T07:42:41.742Z,20.10
2018-02-19T07:45:09.884Z,22.80
2018-02-19T07:47:38.068Z,18.50
2018-02-19T07:50:06.206Z,18.95
2018-02-19T07:52:35.089Z,15.18
2018-02-19T07:55:03.291Z,14.32
2018-02-19T07:57:31.430Z,17.97
2018-02-19T07:59:59.571Z,20.53
2018-02-19T08:02:27.742Z,15.70
2018-02-19T08:04:55.877Z,18.87
2018-02-19T08:07:24.003Z,19.07
2018-02-19T08:09:52.141Z,17.60
2018-02-19T08:12:20.273Z,17.10
2018-02-19T08:14:48.425Z,18.33
2018-02-19T08:17:16.554Z,15.13
2018-02-19T08:19:44.718Z,13.63
2018-02-19T08:22:12.853Z,15.50
2018-02-19T08:24:41.841Z,16.27
2018-02-19T08:27:09.928Z,19.47
2018-02-19T08:29:38.112Z,16.83
2018-02-19T08:32:06.353Z,15.70
2018-02-19T08:34:35.299Z,14.07
2018-02-19T08:37:03.390Z,16.35
2018-02-19T08:39:31.548Z,17.70
2018-02-19T08:41:59.685Z,13.90
2018-02-19T08:44:27.832Z,15.63
2018-02-19T08:46:56.731Z,17.23
2018-02-19T08:49:25.640Z,15.00
2018-02-19T08:51:53.757Z,15.27
2018-02-19T08:54:21.909Z,17.70
2018-02-19T08:56:50.053Z,16.60
2018-02-19T08:59:18.177Z,14.73
2018-02-19T09:01:46.320Z,19.42
2018-02-19T09:04:14.441Z,16.58
2018-02-19T09:06:43.345Z,14.93
2018-02-19T09:09:11.477Z,13.10
2018-02-19T09:11:39.629Z,16.52
2018-02-19T09:14:07.742Z,16.25
2018-02-19T09:16:36.643Z,15.80
2018-02-19T09:19:05.549Z,15.23
2018-02-19T09:21:33.708Z,18.73
2018-02-19T09:24:02.594Z,16.40
2018-02-19T09:26:31.205Z,15.95
2018-02-19T09:28:59.363Z,17.08
2018-02-19T09:31:27.510Z,18.33
2018-02-19T09:33:55.630Z,17.65
2018-02-19T09:36:23.757Z,19.10
2018-02-19T09:38:51.889Z,16.20
2018-02-19T09:41:20.042Z,18.40
2018-02-19T09:43:48.177Z,17.10
2018-02-19T09:46:17.060Z,16.15
2018-02-19T09:48:45.189Z,20.35
2018-02-19T09:51:13.314Z,17.52
2018-02-19T09:53:41.450Z,14.48
2018-02-19T09:56:09.565Z,15.93
2018-02-19T09:58:37.725Z,18.35
2018-02-19T10:01:05.957Z,15.77
2018-02-19T10:03:34.273Z,16.87
2018-02-19T10:06:02.409Z,17.17
2018-02-19T10:08:30.553Z,18.87
2018-02-19T10:10:58.773Z,16.85
2018-02-19T10:13:27.673Z,20.12
2018-02-19T10:15:55.889Z,17.48
2018-02-19T10:18:24.032Z,17.80
2018-02-19T10:20:52.149Z,16.80
2018-02-19T10:23:20.300Z,14.63
2018-02-19T10:25:48.417Z,21.35
2018-02-19T10:28:17.318Z,16.60
2018-02-19T10:30:45.540Z,18.20
2018-02-19T10:33:13.665Z,17.65
2018-02-19T10:35:41.803Z,16.50
2018-02-19T10:38:09.937Z,15.60
2018-02-19T10:40:38.074Z,18.37
2018-02-19T10:43:06.976Z,16.42
2018-02-19T10:45:35.166Z,16.65
2018-02-19T10:48:03.321Z,13.60
2018-02-19T10:50:31.456Z,16.75
2018-02-19T10:52:59.578Z,21.33
2018-02-19T10:55:27.717Z,19.80
2018-02-19T10:57:55.842Z,17.27
2018-02-19T11:00:29.680Z,18.98
2018-02-19T11:02:57.880Z,15.88
2018-02-19T11:05:26.032Z,14.63
2018-02-19T11:07:54.165Z,14.77
2018-02-19T11:10:22.300Z,15.50
2018-02-19T11:12:50.426Z,15.07
2018-02-19T11:15:18.571Z,14.10
2018-02-19T11:17:46.732Z,15.27
2018-02-19T11:20:14.888Z,16.87
2018-02-19T11:22:43.009Z,16.17
2018-02-19T11:25:11.157Z,16.73
2018-02-19T11:27:39.274Z,18.62
2018-02-19T11:30:07.424Z,14.27
2018-02-19T11:32:35.640Z,17.15
2018-02-19T11:35:03.780Z,15.25
2018-02-19T11:37:31.913Z,15.77
2018-02-19T11:40:00.137Z,15.82
2018-02-19T11:42:29.033Z,18.95
2018-02-19T11:44:57.158Z,19.80
2018-02-19T11:47:26.098Z,17.12
2018-02-19T11:49:54.239Z,21.45
2018-02-19T11:52:22.415Z,14.93
2018-02-19T11:54:50.542Z,16.83
2018-02-19T11:57:18.680Z,20.12
2018-02-19T11:59:46.822Z,19.92
2018-02-19T12:02:14.969Z,16.02
2018-02-19T12:04:43.105Z,14.77
2018-02-19T12:07:11.278Z,15.90
2018-02-19T12:09:39.434Z,16.33
2018-02-19T12:12:07.600Z,15.93
2018-02-19T12:14:35.714Z,19.73
2018-02-19T12:17:03.861Z,14.75
2018-02-19T12:19:31.976Z,13.07
2018-02-19T12:22:00.121Z,13.73
2018-02-19T12:24:28.249Z,14.30
2018-02-19T12:26:56.414Z,16.57
2018-02-19T12:29:24.540Z,15.67
2018-02-19T12:31:52.795Z,17.17
2018-02-19T12:34:21.069Z,17.20
2018-02-19T12:36:49.251Z,15.75
2018-02-19T12:39:17.374Z,16.90
2018-02-19T12:41:45.501Z,19.13
2018-02-19T12:44:13.636Z,17.50
2018-02-19T12:46:41.761Z,13.80
2018-02-19T12:49:09.952Z,15.37
2018-02-19T12:51:39.577Z,19.83
2018-02-19T12:54:08.599Z,18.30
2018-02-19T12:56:36.724Z,20.50
2018-02-19T12:59:04.864Z,19.23
2018-02-19T13:01:33.111Z,16.75
2018-02-19T13:04:01.289Z,13.82
2018-02-19T13:06:29.425Z,17.20
2018-02-19T13:08:57.786Z,18.05
2018-02-19T13:11:26.012Z,18.27
2018-02-19T13:13:54.152Z,17.00
2018-02-19T13:16:22.293Z,15.80
2018-02-19T13:18:50.413Z,17.80
2018-02-19T13:21:18.630Z,25.40
2018-02-19T13:23:46.794Z,21.83
2018-02-19T13:26:14.924Z,21.98
2018-02-19T13:28:43.070Z,18.42
2018-02-19T13:31:11.213Z,17.42
2018-02-19T13:33:39.361Z,15.10
2018-02-19T13:36:07.514Z,18.90
2018-02-19T13:38:35.645Z,16.20
2018-02-19T13:41:03.840Z,18.37
2018-02-19T13:43:31.924Z,19.00
2018-02-19T13:46:00.071Z,18.75
2018-02-19T13:48:28.975Z,19.85
2018-02-19T13:50:57.865Z,18.43
2018-02-19T13:53:26.781Z,16.08
2018-02-19T13:55:54.926Z,14.90
2018-02-19T13:58:23.813Z,19.50
2018-02-19T14:00:52.793Z,19.05
2018-02-19T14:03:21.687Z,15.93
2018-02-19T14:05:50.589Z,17.23
2018-02-19T14:08:18.983Z,18.40
2018-02-19T14:10:47.120Z,16.67
2018-02-19T14:13:15.301Z,16.27
2018-02-19T14:15:44.210Z,14.55
2018-02-19T14:18:12.331Z,15.88
2018-02-19T14:20:40.462Z,15.82
2018-02-19T14:23:08.622Z,15.88
2018-02-19T14:25:36.758Z,17.58
2018-02-19T14:28:04.903Z,17.05
2018-02-19T14:30:33.094Z,17.00
2018-02-19T14:33:01.255Z,15.15
2018-02-19T14:35:29.381Z,17.98
2018-02-19T14:37:57.559Z,15.32
2018-02-19T14:40:26.452Z,16.58
2018-02-19T14:42:54.646Z,15.73
2018-02-19T14:45:22.729Z,16.95
2018-02-19T14:47:50.901Z,16.83
2018-02-19T14:50:19.026Z,15.77
2018-02-19T14:52:47.157Z,17.52
2018-02-19T14:55:15.277Z,19.42
2018-02-19T14:57:43.418Z,17.50
2018-02-19T15:00:11.617Z,17.85
2018-02-19T15:02:39.769Z,19.48
2018-02-19T15:05:07.949Z,18.17
2018-02-19T15:07:36.083Z,18.75
2018-02-19T15:10:04.310Z,15.85
2018-02-19T15:12:32.448Z,19.42
2018-02-19T15:15:00.581Z,18.05
2018-02-19T15:17:28.734Z,19.00
2018-02-19T15:19:56.934Z,19.85
2018-02-19T15:22:25.072Z,17.12
2018-02-19T15:24:53.233Z,19.42
2018-02-19T15:27:21.358Z,17.65
2018-02-19T15:29:49.511Z,17.23
2018-02-19T15:32:17.630Z,20.02
2018-02-19T15:34:45.786Z,16.45
2018-02-19T15:37:13.927Z,16.67
2018-02-19T15:39:42.050Z,18.75
2018-02-19T15:42:10.937Z,18.58
2018-02-19T15:44:39.096Z,21.48
2018-02-19T15:47:07.997Z,18.48
2018-02-19T15:49:36.144Z,17.92
2018-02-19T15:52:05.818Z,20.10
2018-02-19T15:54:33.969Z,20.00
2018-02-19T15:57:02.126Z,16.62
2018-02-19T15:59:30.257Z,18.75
2018-02-19T16:01:58.369Z,21.12
2018-02-19T16:04:26.489Z,17.80
2018-02-19T16:06:54.627Z,23.50
2018-02-19T16:09:22.752Z,20.62
2018-02-19T16:11:50.889Z,18.80
2018-02-19T16:14:19.007Z,20.12
2018-02-19T16:16:47.247Z,21.85
2018-02-19T16:19:15.369Z,24.10
2018-02-19T16:21:43.538Z,23.05
2018-02-19T16:24:11.670Z,25.00
2018-02-19T16:26:39.819Z,22.25
2018-02-19T16:29:07.949Z,24.73
2018-02-19T16:31:36.852Z,24.58
2018-02-19T16:34:04.986Z,22.98
2018-02-19T16:36:33.204Z,25.08
2018-02-19T16:39:01.425Z,22.80
2018-02-19T16:41:29.581Z,23.90
2018-02-19T16:43:57.768Z,27.95
2018-02-19T16:46:25.905Z,21.73
2018-02-19T16:48:54.049Z,26.95
2018-02-19T16:51:22.185Z,24.02
2018-02-19T16:53:51.830Z,24.15
2018-02-19T16:56:19.975Z,25.52
2018-02-19T16:58:48.115Z,25.90
2018-02-19T17:01:16.315Z,28.40
2018-02-19T17:03:44.448Z,27.33
2018-02-19T17:06:12.615Z,23.20
2018-02-19T17:08:40.753Z,27.20
2018-02-19T17:11:08.941Z,29.48
2018-02-19T17:13:37.840Z,30.48
2018-02-19T17:16:05.995Z,31.75
2018-02-19T17:18:34.133Z,34.10
2018-02-19T17:21:02.271Z,29.92
2018-02-19T17:23:30.424Z,30.30
2018-02-19T17:25:58.552Z,33.33
2018-02-19T17:28:26.698Z,34.53
2018-02-19T17:30:54.913Z,38.92
2018-02-19T17:33:23.066Z,38.35
2018-02-19T17:35:51.189Z,34.70
2018-02-19T17:38:19.336Z,33.92
2018-02-19T17:40:47.466Z,28.65
2018-02-19T17:43:15.613Z,33.95
2018-02-19T17:45:43.748Z,32.13
2018-02-19T17:48:11.889Z,32.20
2018-02-19T17:50:40.778Z,33.63
2018-02-19T17:53:09.278Z,33.35
2018-02-19T17:55:38.159Z,29.20
2018-02-19T17:58:07.168Z,35.10
2018-02-19T18:00:35.315Z,35.42
2018-02-19T18:03:03.440Z,33.20
2018-02-19T18:05:31.702Z,39.10
2018-02-19T18:08:00.257Z,36.70
2018-02-19T18:10:29.189Z,42.13
2018-02-19T18:12:57.314Z,36.88
2018-02-19T18:15:26.223Z,39.30
2018-02-19T18:17:54.351Z,35.42
2018-02-19T18:20:22.500Z,33.97
2018-02-19T18:22:50.654Z,25.62
2018-02-19T18:25:18.795Z,28.73
2018-02-19T18:27:46.922Z,30.98
2018-02-19T18:30:15.126Z,31.73
2018-02-19T18:32:44.022Z,34.80
2018-02-19T18:35:12.929Z,37.33
2018-02-19T18:37:41.059Z,34.72
2018-02-19T18:40:09.199Z,28.73
2018-02-19T18:42:37.341Z,31.62
2018-02-19T18:45:05.466Z,29.48
2018-02-19T18:47:33.649Z,28.92
2018-02-19T18:50:01.784Z,30.80
2018-02-19T18:52:29.931Z,29.65
2018-02-19T18:54:58.074Z,35.50
2018-02-19T18:57:26.222Z,29.83
2018-02-19T18:59:54.353Z,33.80
2018-02-19T19:02:22.539Z,41.40
2018-02-19T19:04:50.635Z,35.53
2018-02-19T19:07:30.533Z,39.85
2018-02-19T19:10:11.919Z,38.67
2018-02-19T19:12:42.772Z,39.83
2018-02-19T19:15:14.596Z,36.92
2018-02-19T19:17:44.718Z,28.15
2018-02-19T19:20:13.678Z,35.00
2018-02-19T19:22:41.827Z,45.83
2018-02-19T19:25:09.949Z,59.97
2018-02-19T19:27:39.000Z,44.30
2018-02-19T19:30:07.133Z,40.55
2018-02-19T19:32:35.273Z,35.63
2018-02-19T19:35:04.370Z,36.58
2018-02-19T19:37:32.579Z,32.80
2018-02-19T19:40:00.708Z,37.45
2018-02-19T19:42:29.982Z,40.35
2018-02-19T19:44:58.098Z,42.50
2018-02-19T19:47:26.220Z,34.75
2018-02-19T19:49:54.425Z,41.53
2018-02-19T19:52:23.685Z,33.75
2018-02-19T19:54:51.817Z,34.55
2018-02-19T19:57:19.945Z,35.03
2018-02-19T19:59:48.120Z,35.60
2018-02-19T20:02:17.073Z,36.03
2018-02-19T20:04:46.173Z,34.28
2018-02-19T20:07:15.137Z,36.83
2018-02-19T20:09:43.428Z,38.97
2018-02-19T20:12:11.578Z,42.90
2018-02-19T20:14:39.789Z,39.80
2018-02-19T20:17:08.877Z,39.72
2018-02-19T20:19:37.164Z,45.83
2018-02-19T20:22:05.330Z,48.92
2018-02-19T20:24:33.494Z,42.10
2018-02-19T20:27:01.632Z,41.75
2018-02-19T20:29:29.849Z,43.05
2018-02-19T20:31:58.113Z,49.70
2018-02-19T20:34:27.237Z,48.83
2018-02-19T20:36:55.429Z,44.65
2018-02-19T20:39:24.364Z,38.75
2018-02-19T20:41:52.511Z,41.17
2018-02-19T20:44:20.657Z,41.05
2018-02-19T20:46:48.936Z,37.65
2018-02-19T20:49:17.834Z,38.95
2018-02-19T20:51:46.897Z,41.28
2018-02-19T20:54:15.980Z,41.42
2018-02-19T20:56:44.273Z,37.05
2018-02-19T20:59:12.441Z,39.80
2018-02-19T21:01:41.364Z,41.28
2018-02-19T21:04:10.269Z,39.83
2018-02-19T21:06:38.416Z,45.65
2018-02-19T21:09:07.645Z,49.88
2018-02-19T21:11:36.990Z,62.35
2018-02-19T21:14:07.534Z,49.72
2018-02-19T21:16:37.557Z,39.15
2018-02-19T21:19:07.055Z,50.50
2018-02-19T21:21:37.125Z,53.55
2018-02-19T21:24:06.569Z,49.88
2018-02-19T21:26:35.153Z,48.80
2018-02-19T21:29:03.719Z,45.83
2018-02-19T21:31:32.271Z,42.90
2018-02-19T21:34:00.588Z,45.40
2018-02-19T21:36:28.748Z,40.42
2018-02-19T21:38:57.146Z,40.63
2018-02-19T21:41:26.897Z,42.13
2018-02-19T21:43:55.065Z,39.67
2018-02-19T21:46:23.225Z,36.78
2018-02-19T21:48:51.364Z,39.70
2018-02-19T21:51:19.516Z,38.78
2018-02-19T21:53:47.729Z,42.97
2018-02-19T21:56:16.637Z,41.63
2018-02-19T21:58:44.827Z,44.50
2018-02-19T22:01:12.971Z,39.15
2018-02-19T22:03:41.122Z,40.60
2018-02-19T22:06:10.013Z,42.55
2018-02-19T22:08:38.937Z,42.50
2018-02-19T22:11:07.157Z,46.95
2018-02-19T22:13:35.333Z,38.92
2018-02-19T22:16:03.478Z,39.55
2018-02-19T22:18:31.655Z,40.47
2018-02-19T22:21:00.876Z,40.83
2018-02-19T22:23:29.017Z,41.95
2018-02-19T22:25:57.146Z,44.72
2018-02-19T22:28:26.098Z,43.30
2018-02-19T22:30:54.213Z,43.80
2018-02-19T22:33:22.384Z,45.95
2018-02-19T22:35:50.561Z,41.97
2018-02-19T22:38:18.741Z,40.10
2018-02-19T22:40:47.009Z,39.75
2018-02-19T22:43:15.149Z,42.17
2018-02-19T22:45:43.300Z,40.42
2018-02-19T22:48:11.533Z,44.15
2018-02-19T22:50:39.692Z,38.63
2018-02-19T22:53:09.021Z,39.08
2018-02-19T22:55:37.165Z,34.55
2018-02-19T22:58:05.305Z,45.67
2018-02-19T23:00:33.479Z,41.80
2018-02-19T23:03:01.611Z,40.00
2018-02-19T23:05:29.765Z,44.50
2018-02-19T23:07:57.926Z,41.13
2018-02-19T23:10:26.100Z,43.00
2018-02-19T23:12:54.229Z,42.55
2018-02-19T23:15:22.389Z,42.58
2018-02-19T23:17:50.527Z,36.75
2018-02-19T23:20:19.374Z,38.85
2018-02-19T23:22:47.505Z,44.08
2018-02-19T23:25:15.628Z,47.62
2018-02-19T23:27:44.553Z,40.97
2018-02-19T23:30:12.679Z,38.10
2018-02-19T23:32:41.586Z,47.08
2018-02-19T23:35:09.744Z,46.35
2018-02-19T23:37:37.852Z,45.90
2018-02-19T23:40:05.976Z,45.20
2018-02-19T23:42:34.121Z,39.40
2018-02-19T23:45:02.254Z,40.95
2018-02-19T23:47:30.398Z,42.15
2018-02-19T23:49:59.298Z,35.95
2018-02-19T23:52:28.205Z,45.45
2018-02-19T23:54:56.341Z,38.45
2018-02-19T23:57:25.126Z,43.65
2018-02-19T23:59:53.293Z,36.92
